createdAt,value
2018-10-11T00:00:17.802Z,13.80
2018-10-11T00:02:45.985Z,13.80
2018-10-11T00:05:14.143Z,13.90
2018-10-11T00:07:42.281Z,13.80
2018-10-11T00:10:10.475Z,13.80
2018-10-11T00:12:38.823Z,13.70
2018-10-11T00:15:07.009Z,13.70
2018-10-11T00:17:35.167Z,13.70
2018-10-11T00:20:03.390Z,13.70
2018-10-11T00:22:31.492Z,13.70
2018-10-11T00:24:59.647Z,13.70
2018-10-11T00:27:27.778Z,13.60
2018-10-11T00:29:55.937Z,13.60
2018-10-11T00:32:24.078Z,13.60
2018-10-11T00:34:52.279Z,13.60
2018-10-11T00:37:20.440Z,13.60
2018-10-11T00:39:48.622Z,13.50
2018-10-11T00:42:16.811Z,13.50
2018-10-11T00:44:44.968Z,13.50
2018-10-11T00:47:13.123Z,13.40
2018-10-11T00:49:41.305Z,13.40
2018-10-11T00:52:09.468Z,13.40
2018-10-11T00:54:37.659Z,13.30
2018-10-11T00:57:06.523Z,13.30
2018-10-11T00:59:34.689Z,13.20
2018-10-11T01:02:02.881Z,13.10
2018-10-11T01:04:31.033Z,13.00
2018-10-11T01:06:59.213Z,13.00
2018-10-11T01:09:27.524Z,13.00
2018-10-11T01:11:55.633Z,13.00
2018-10-11T01:14:23.805Z,13.10
2018-10-11T01:16:51.957Z,13.10
2018-10-11T01:19:20.130Z,13.10
2018-10-11T01:21:48.313Z,13.10
2018-10-11T01:24:16.461Z,13.20
2018-10-11T01:26:44.653Z,13.20
2018-10-11T01:29:13.753Z,13.30
2018-10-11T01:31:41.917Z,13.30
2018-10-11T01:34:10.105Z,13.20
2018-10-11T01:36:38.244Z,13.20
2018-10-11T01:39:06.458Z,13.30
2018-10-11T01:41:34.689Z,13.30
2018-10-11T01:44:02.866Z,13.30
2018-10-11T01:46:31.076Z,13.20
2018-10-11T01:48:59.209Z,13.10
2018-10-11T01:51:27.792Z,13.10
2018-10-11T01:53:55.912Z,13.10
2018-10-11T01:56:24.089Z,13.10
2018-10-11T01:58:52.267Z,13.20
2018-10-11T02:01:20.406Z,13.20
2018-10-11T02:03:48.558Z,13.20
2018-10-11T02:06:16.669Z,13.20
2018-10-11T02:08:44.857Z,13.20
2018-10-11T02:11:12.986Z,13.20
2018-10-11T02:13:41.141Z,13.10
2018-10-11T02:16:09.337Z,13.00
2018-10-11T02:18:37.550Z,13.00
2018-10-11T02:21:06.273Z,13.00
2018-10-11T02:23:34.532Z,12.90
2018-10-11T02:26:02.685Z,12.90
2018-10-11T02:28:30.921Z,12.90
2018-10-11T02:30:59.106Z,12.80
2018-10-11T02:33:27.319Z,12.80
2018-10-11T02:35:55.982Z,12.70
2018-10-11T02:38:24.145Z,12.70
2018-10-11T02:40:52.305Z,12.80
2018-10-11T02:43:20.469Z,12.90
2018-10-11T02:45:48.679Z,12.90
2018-10-11T02:48:16.861Z,12.90
2018-10-11T02:50:45.039Z,12.80
2018-10-11T02:53:13.181Z,12.70
2018-10-11T02:55:41.549Z,12.70
2018-10-11T02:58:21.229Z,12.50
2018-10-11T03:00:49.442Z,12.40
2018-10-11T03:03:25.795Z,12.30
2018-10-11T03:05:54.013Z,12.30
2018-10-11T03:08:24.421Z,12.30
2018-10-11T03:10:52.505Z,12.40
2018-10-11T03:13:20.658Z,12.40
2018-10-11T03:15:48.801Z,12.30
2018-10-11T03:18:17.214Z,12.30
2018-10-11T03:20:45.891Z,12.40
2018-10-11T03:23:14.674Z,12.30
2018-10-11T03:25:44.069Z,12.30
2018-10-11T03:28:13.713Z,12.30
2018-10-11T03:30:42.362Z,12.30
2018-10-11T03:33:11.257Z,12.30
2018-10-11T03:35:39.847Z,12.30
2018-10-11T03:38:08.125Z,12.20
2018-10-11T03:40:36.525Z,12.20
2018-10-11T03:43:04.717Z,12.20
2018-10-11T03:45:32.909Z,12.20
2018-10-11T03:48:01.081Z,12.20
2018-10-11T03:50:29.213Z,12.20
2018-10-11T03:52:58.365Z,12.20
2018-10-11T03:55:26.729Z,12.10
2018-10-11T03:57:54.909Z,12.10
2018-10-11T04:00:23.115Z,11.90
2018-10-11T04:02:51.331Z,11.70
2018-10-11T04:05:19.501Z,11.80
2018-10-11T04:07:47.650Z,12.50
2018-10-11T04:10:15.833Z,11.70
2018-10-11T04:12:44.000Z,11.70
2018-10-11T04:15:12.206Z,11.70
2018-10-11T04:17:40.593Z,11.70
2018-10-11T04:20:08.802Z,11.80
2018-10-11T04:22:37.009Z,11.80
2018-10-11T04:25:05.179Z,11.80
2018-10-11T04:27:33.378Z,11.80
2018-10-11T04:30:01.590Z,11.80
2018-10-11T04:32:29.713Z,11.80
2018-10-11T04:34:57.872Z,11.80
2018-10-11T04:37:26.045Z,11.70
2018-10-11T04:39:54.200Z,11.70
2018-10-11T04:42:22.361Z,11.70
2018-10-11T04:44:50.542Z,11.70
2018-10-11T04:47:18.722Z,11.70
2018-10-11T04:49:46.849Z,11.70
2018-10-11T04:52:14.981Z,11.60
2018-10-11T04:54:43.174Z,11.50
2018-10-11T04:57:11.325Z,11.40
2018-10-11T04:59:39.511Z,11.30
2018-10-11T05:02:07.669Z,11.30
2018-10-11T05:04:35.873Z,11.20
2018-10-11T05:07:04.090Z,11.10
2018-10-11T05:09:32.269Z,11.00
2018-10-11T05:12:00.504Z,10.90
2018-10-11T05:14:29.093Z,11.00
2018-10-11T05:16:57.243Z,11.00
2018-10-11T05:19:25.443Z,11.10
2018-10-11T05:21:53.598Z,11.20
2018-10-11T05:24:21.752Z,11.20
2018-10-11T05:26:49.950Z,11.20
2018-10-11T05:29:18.137Z,11.20
2018-10-11T05:31:46.405Z,11.10
2018-10-11T05:34:14.574Z,11.10
2018-10-11T05:36:42.746Z,11.10
2018-10-11T05:39:11.013Z,11.10
2018-10-11T05:41:39.229Z,11.10
2018-10-11T05:44:07.453Z,11.10
2018-10-11T05:46:35.618Z,11.20
2018-10-11T05:49:05.150Z,11.20
2018-10-11T05:51:34.433Z,11.10
2018-10-11T05:54:03.032Z,11.10
2018-10-11T05:56:32.395Z,11.20
2018-10-11T05:59:00.525Z,11.20
2018-10-11T06:01:28.681Z,11.10
2018-10-11T06:03:57.710Z,10.90
2018-10-11T06:06:25.821Z,10.80
2018-10-11T06:08:54.604Z,10.90
2018-10-11T06:11:22.777Z,11.00
2018-10-11T06:13:50.961Z,10.90
2018-10-11T06:16:19.156Z,10.90
2018-10-11T06:18:47.394Z,10.90
2018-10-11T06:21:15.709Z,10.90
2018-10-11T06:23:43.869Z,10.80
2018-10-11T06:26:12.560Z,10.80
2018-10-11T06:28:40.746Z,10.80
2018-10-11T06:31:08.981Z,10.70
2018-10-11T06:33:37.171Z,10.70
2018-10-11T06:36:05.371Z,10.70
2018-10-11T06:38:33.521Z,10.80
2018-10-11T06:41:01.704Z,10.80
2018-10-11T06:43:29.864Z,10.90
2018-10-11T06:45:58.050Z,11.00
2018-10-11T06:48:26.245Z,11.10
2018-10-11T06:50:54.533Z,11.10
2018-10-11T06:53:22.757Z,11.20
2018-10-11T06:55:50.960Z,11.20
2018-10-11T06:58:19.198Z,11.20
2018-10-11T07:00:47.385Z,11.30
2018-10-11T07:03:15.586Z,11.40
2018-10-11T07:05:43.919Z,11.50
2018-10-11T07:08:12.063Z,11.50
2018-10-11T07:10:40.229Z,11.50
2018-10-11T07:13:08.758Z,11.60
2018-10-11T07:15:36.910Z,11.70
2018-10-11T07:18:05.069Z,11.80
2018-10-11T07:20:33.283Z,11.80
2018-10-11T07:23:01.450Z,11.90
2018-10-11T07:25:29.631Z,12.00
2018-10-11T07:27:57.825Z,12.00
2018-10-11T07:30:26.137Z,12.10
2018-10-11T07:32:54.293Z,12.20
2018-10-11T07:35:22.605Z,12.30
2018-10-11T07:37:50.705Z,12.40
2018-10-11T07:40:19.205Z,12.50
2018-10-11T07:42:47.309Z,12.60
2018-10-11T07:45:15.528Z,12.70
2018-10-11T07:47:43.801Z,12.80
2018-10-11T07:50:12.037Z,13.00
2018-10-11T07:52:40.227Z,13.10
2018-10-11T07:55:08.373Z,13.30
2018-10-11T07:57:36.533Z,13.40
2018-10-11T08:00:05.196Z,13.50
2018-10-11T08:02:33.337Z,13.60
2018-10-11T08:05:01.567Z,13.70
2018-10-11T08:07:29.740Z,13.80
2018-10-11T08:09:57.834Z,14.00
2018-10-11T08:12:25.998Z,14.00
2018-10-11T08:14:54.163Z,14.10
2018-10-11T08:17:22.955Z,14.10
2018-10-11T08:19:50.893Z,14.20
2018-10-11T08:22:19.029Z,14.30
2018-10-11T08:24:47.302Z,14.30
2018-10-11T08:27:15.385Z,14.30
2018-10-11T08:29:43.491Z,14.30
2018-10-11T08:32:11.791Z,14.30
2018-10-11T08:34:39.845Z,14.20
2018-10-11T08:37:07.999Z,14.10
2018-10-11T08:39:36.202Z,14.10
2018-10-11T08:42:04.369Z,14.00
2018-10-11T08:44:32.522Z,14.10
2018-10-11T08:47:00.675Z,14.20
2018-10-11T08:49:28.845Z,14.30
2018-10-11T08:51:56.995Z,14.30
2018-10-11T08:54:30.611Z,14.30
2018-10-11T08:56:58.904Z,14.50
2018-10-11T08:59:27.484Z,14.70
2018-10-11T09:01:55.541Z,14.80
2018-10-11T09:04:23.695Z,14.90
2018-10-11T09:06:51.910Z,15.00
2018-10-11T09:09:20.136Z,15.10
2018-10-11T09:11:48.313Z,15.20
2018-10-11T09:14:16.490Z,15.40
2018-10-11T09:16:44.837Z,15.50
2018-10-11T09:19:12.989Z,15.50
2018-10-11T09:21:41.146Z,15.50
2018-10-11T09:24:09.308Z,15.40
2018-10-11T09:26:37.532Z,15.40
2018-10-11T09:29:06.006Z,15.50
2018-10-11T09:31:34.236Z,15.60
2018-10-11T09:34:02.393Z,15.80
2018-10-11T09:36:30.579Z,16.00
2018-10-11T09:38:58.690Z,16.10
2018-10-11T09:41:26.912Z,16.20
2018-10-11T09:43:55.117Z,16.30
2018-10-11T09:46:23.405Z,16.30
2018-10-11T09:48:51.745Z,16.40
2018-10-11T09:51:19.785Z,16.40
2018-10-11T09:53:47.965Z,16.50
2018-10-11T09:56:16.162Z,16.50
2018-10-11T09:58:44.406Z,16.50
2018-10-11T10:01:17.860Z,16.60
2018-10-11T10:03:46.206Z,16.70
2018-10-11T10:06:14.409Z,16.70
2018-10-11T10:08:42.575Z,16.70
2018-10-11T10:11:10.854Z,16.60
2018-10-11T10:13:39.013Z,16.60
2018-10-11T10:16:07.202Z,16.70
2018-10-11T10:18:35.385Z,16.60
2018-10-11T10:21:03.613Z,16.70
2018-10-11T10:23:31.758Z,16.80
2018-10-11T10:25:59.905Z,16.90
2018-10-11T10:28:28.077Z,17.00
2018-10-11T10:30:56.243Z,17.10
2018-10-11T10:33:25.445Z,17.30
2018-10-11T10:35:53.724Z,17.50
2018-10-11T10:38:22.945Z,17.70
2018-10-11T10:40:51.205Z,17.90
2018-10-11T10:43:19.410Z,18.10
2018-10-11T10:45:47.553Z,18.20
2018-10-11T10:48:15.786Z,18.30
2018-10-11T10:50:44.005Z,18.40
2018-10-11T10:53:12.142Z,18.50
2018-10-11T10:55:40.334Z,18.70
2018-10-11T10:58:08.460Z,18.80
2018-10-11T11:00:36.645Z,19.00
2018-10-11T11:03:04.814Z,18.90
2018-10-11T11:05:33.213Z,19.10
2018-10-11T11:08:01.430Z,19.20
2018-10-11T11:10:29.625Z,19.30
2018-10-11T11:12:57.790Z,19.40
2018-10-11T11:15:25.923Z,19.60
2018-10-11T11:17:54.086Z,19.90
2018-10-11T11:20:22.272Z,20.10
2018-10-11T11:22:50.437Z,20.20
2018-10-11T11:25:18.661Z,20.30
2018-10-11T11:27:46.868Z,20.30
2018-10-11T11:30:15.081Z,20.20
2018-10-11T11:32:43.265Z,20.30
2018-10-11T11:35:11.446Z,20.40
2018-10-11T11:37:39.628Z,20.70
2018-10-11T11:40:07.929Z,20.80
2018-10-11T11:42:35.978Z,21.00
2018-10-11T11:45:04.275Z,21.00
2018-10-11T11:47:32.441Z,21.00
2018-10-11T11:50:00.613Z,21.00
2018-10-11T11:52:28.817Z,21.20
2018-10-11T11:54:56.946Z,21.40
2018-10-11T11:57:25.137Z,21.50
2018-10-11T11:59:53.340Z,21.50
2018-10-11T12:02:21.486Z,21.60
2018-10-11T12:04:49.669Z,21.70
2018-10-11T12:07:17.858Z,21.90
2018-10-11T12:09:46.031Z,22.10
2018-10-11T12:12:25.366Z,22.00
2018-10-11T12:14:53.536Z,22.20
2018-10-11T12:17:21.674Z,22.30
2018-10-11T12:19:49.839Z,22.30
2018-10-11T12:22:17.978Z,22.40
2018-10-11T12:24:46.133Z,22.50
2018-10-11T12:27:14.396Z,22.60
2018-10-11T12:29:42.563Z,22.80
2018-10-11T12:32:10.731Z,23.00
2018-10-11T12:34:38.883Z,23.00
2018-10-11T12:37:07.125Z,23.00
2018-10-11T12:39:35.277Z,22.80
2018-10-11T12:42:03.490Z,22.70
2018-10-11T12:44:31.686Z,22.70
2018-10-11T12:46:59.871Z,22.60
2018-10-11T12:49:28.187Z,22.60
2018-10-11T12:51:56.447Z,22.40
2018-10-11T12:54:24.609Z,22.40
2018-10-11T12:56:52.899Z,22.20
2018-10-11T12:59:20.885Z,22.10
2018-10-11T13:01:49.102Z,22.00
2018-10-11T13:04:17.237Z,21.90
2018-10-11T13:06:45.434Z,21.90
2018-10-11T13:09:13.646Z,21.80
2018-10-11T13:11:41.808Z,21.90
2018-10-11T13:14:09.925Z,21.80
2018-10-11T13:16:38.072Z,21.80
2018-10-11T13:19:06.230Z,21.80
2018-10-11T13:21:34.393Z,21.80
2018-10-11T13:24:02.569Z,21.80
2018-10-11T13:26:30.822Z,21.80
2018-10-11T13:28:59.054Z,21.80
2018-10-11T13:31:27.118Z,21.70
2018-10-11T13:33:55.405Z,21.60
2018-10-11T13:36:23.537Z,21.70
2018-10-11T13:38:51.762Z,21.70
2018-10-11T13:41:19.992Z,21.70
2018-10-11T13:43:48.085Z,21.70
2018-10-11T13:46:16.230Z,21.70
2018-10-11T13:48:44.482Z,21.70
2018-10-11T13:51:12.669Z,21.70
2018-10-11T13:53:40.810Z,21.80
2018-10-11T13:56:08.961Z,21.80
2018-10-11T13:58:37.194Z,21.70
2018-10-11T14:01:05.326Z,21.70
2018-10-11T14:03:33.630Z,21.60
2018-10-11T14:06:01.785Z,21.50
2018-10-11T14:08:29.909Z,21.50
2018-10-11T14:10:58.119Z,21.50
2018-10-11T14:13:26.474Z,21.40
2018-10-11T14:15:54.653Z,21.30
2018-10-11T14:18:22.861Z,21.30
2018-10-11T14:20:51.006Z,21.30
2018-10-11T14:23:19.221Z,21.40
2018-10-11T14:25:47.404Z,21.30
2018-10-11T14:28:15.629Z,21.30
2018-10-11T14:30:43.769Z,21.30
2018-10-11T14:33:11.957Z,21.30
2018-10-11T14:35:40.129Z,21.20
2018-10-11T14:38:08.465Z,21.20
2018-10-11T14:40:36.654Z,21.20
2018-10-11T14:43:04.921Z,21.10
2018-10-11T14:45:33.080Z,21.10
2018-10-11T14:48:01.281Z,21.00
2018-10-11T14:50:29.969Z,20.90
2018-10-11T14:52:58.145Z,21.00
2018-10-11T14:55:26.425Z,20.90
2018-10-11T14:57:54.621Z,20.90
2018-10-11T15:00:22.813Z,20.90
2018-10-11T15:02:51.076Z,20.80
2018-10-11T15:05:19.150Z,20.80
2018-10-11T15:07:47.329Z,20.70
2018-10-11T15:10:15.557Z,20.70
2018-10-11T15:12:43.645Z,20.70
2018-10-11T15:15:11.802Z,20.70
2018-10-11T15:17:39.943Z,20.60
2018-10-11T15:20:08.256Z,20.60
2018-10-11T15:22:36.426Z,20.60
2018-10-11T15:25:05.198Z,20.60
2018-10-11T15:27:33.413Z,20.50
2018-10-11T15:30:01.577Z,20.50
2018-10-11T15:32:29.734Z,20.50
2018-10-11T15:34:57.985Z,20.60
2018-10-11T15:37:26.161Z,20.60
2018-10-11T15:39:54.365Z,20.60
2018-10-11T15:42:22.577Z,20.50
2018-10-11T15:44:50.951Z,20.50
2018-10-11T15:47:19.133Z,20.60
2018-10-11T15:49:47.323Z,20.60
2018-10-11T15:52:15.508Z,20.60
2018-10-11T15:54:43.641Z,20.50
2018-10-11T15:57:11.846Z,20.50
2018-10-11T15:59:40.026Z,20.50
2018-10-11T16:02:08.422Z,20.50
2018-10-11T16:04:36.667Z,20.50
2018-10-11T16:07:04.850Z,20.50
2018-10-11T16:09:33.056Z,20.50
2018-10-11T16:12:01.803Z,20.50
2018-10-11T16:14:29.990Z,20.60
2018-10-11T16:16:58.183Z,20.60
2018-10-11T16:19:26.365Z,20.70
2018-10-11T16:21:54.521Z,20.80
2018-10-11T16:24:22.701Z,20.80
2018-10-11T16:26:50.970Z,20.80
2018-10-11T16:29:19.332Z,20.70
2018-10-11T16:31:47.830Z,20.60
2018-10-11T16:34:15.992Z,20.60
2018-10-11T16:36:44.165Z,20.70
2018-10-11T16:39:12.351Z,20.70
2018-10-11T16:41:40.642Z,20.70
2018-10-11T16:44:08.918Z,20.70
2018-10-11T16:46:37.401Z,20.70
2018-10-11T16:49:05.609Z,20.60
2018-10-11T16:51:33.800Z,20.60
2018-10-11T16:54:02.029Z,20.60
2018-10-11T16:56:30.425Z,20.50
2018-10-11T16:58:58.653Z,20.50
2018-10-11T17:01:26.821Z,20.40
2018-10-11T17:03:54.991Z,20.40
2018-10-11T17:06:23.188Z,20.30
2018-10-11T17:08:51.382Z,20.30
2018-10-11T17:11:19.538Z,20.20
2018-10-11T17:13:47.671Z,20.10
2018-10-11T17:16:15.859Z,20.00
2018-10-11T17:18:44.058Z,20.00
2018-10-11T17:21:12.285Z,19.90
2018-10-11T17:23:40.434Z,19.80
2018-10-11T17:26:08.611Z,19.80
2018-10-11T17:28:36.776Z,19.70
2018-10-11T17:31:04.929Z,19.70
2018-10-11T17:33:33.145Z,19.60
2018-10-11T17:36:01.266Z,19.50
2018-10-11T17:38:29.450Z,19.40
2018-10-11T17:40:57.629Z,19.40
2018-10-11T17:43:25.838Z,19.40
2018-10-11T17:45:54.025Z,19.30
2018-10-11T17:48:22.214Z,19.20
2018-10-11T17:50:50.385Z,19.20
2018-10-11T17:53:18.771Z,19.10
2018-10-11T17:55:46.947Z,19.00
2018-10-11T17:58:15.145Z,19.00
2018-10-11T18:00:43.305Z,18.80
2018-10-11T18:03:11.510Z,18.80
2018-10-11T18:05:39.658Z,18.70
2018-10-11T18:08:07.849Z,18.70
2018-10-11T18:10:36.070Z,18.70
2018-10-11T18:13:04.272Z,18.60
2018-10-11T18:15:32.405Z,18.60
2018-10-11T18:18:00.575Z,18.60
2018-10-11T18:20:28.850Z,18.60
2018-10-11T18:22:57.045Z,18.60
2018-10-11T18:25:25.194Z,18.60
2018-10-11T18:27:53.370Z,18.60
2018-10-11T18:30:21.537Z,18.60
2018-10-11T18:32:49.733Z,18.50
2018-10-11T18:35:17.879Z,18.50
2018-10-11T18:37:46.052Z,18.50
2018-10-11T18:40:14.233Z,18.40
2018-10-11T18:42:42.454Z,18.40
2018-10-11T18:45:10.602Z,18.40
2018-10-11T18:47:38.767Z,18.40
2018-10-11T18:50:07.071Z,18.50
2018-10-11T18:52:35.237Z,18.50
2018-10-11T18:55:03.436Z,18.40
2018-10-11T18:57:31.620Z,18.30
2018-10-11T18:59:59.782Z,18.30
2018-10-11T19:02:28.027Z,18.30
2018-10-11T19:04:56.173Z,18.20
2018-10-11T19:07:24.476Z,18.10
2018-10-11T19:09:52.670Z,18.10
2018-10-11T19:12:20.826Z,18.00
2018-10-11T19:14:48.978Z,18.00
2018-10-11T19:17:17.161Z,17.90
2018-10-11T19:19:45.289Z,18.00
2018-10-11T19:22:13.481Z,18.00
2018-10-11T19:24:41.629Z,18.00
2018-10-11T19:27:09.814Z,18.10
2018-10-11T19:29:38.038Z,18.10
2018-10-11T19:32:06.223Z,18.10
2018-10-11T19:34:34.411Z,18.00
2018-10-11T19:37:02.595Z,18.00
2018-10-11T19:39:30.791Z,17.90
2018-10-11T19:42:00.501Z,17.80
2018-10-11T19:44:28.670Z,17.80
2018-10-11T19:46:56.945Z,17.70
2018-10-11T19:49:25.114Z,17.70
2018-10-11T19:51:53.286Z,17.70
2018-10-11T19:54:21.439Z,17.70
2018-10-11T19:56:49.597Z,17.60
2018-10-11T19:59:17.806Z,17.70
2018-10-11T20:01:45.960Z,17.70
2018-10-11T20:04:14.105Z,17.70
2018-10-11T20:06:42.374Z,17.70
2018-10-11T20:09:10.569Z,17.70
2018-10-11T20:11:38.760Z,17.70
2018-10-11T20:14:06.994Z,17.70
2018-10-11T20:16:35.286Z,17.70
2018-10-11T20:19:03.458Z,17.70
2018-10-11T20:21:31.743Z,17.70
2018-10-11T20:23:59.892Z,17.60
2018-10-11T20:26:28.081Z,17.60
2018-10-11T20:28:56.326Z,17.70
2018-10-11T20:31:24.502Z,17.60
2018-10-11T20:33:52.670Z,17.60
2018-10-11T20:36:20.854Z,17.60
2018-10-11T20:38:49.006Z,17.60
2018-10-11T20:41:17.238Z,17.50
2018-10-11T20:43:45.513Z,17.50
2018-10-11T20:46:13.661Z,17.40
2018-10-11T20:48:41.828Z,17.30
2018-10-11T20:51:10.103Z,17.30
2018-10-11T20:53:38.186Z,17.30
2018-10-11T20:56:06.747Z,17.30
2018-10-11T20:58:34.946Z,17.20
2018-10-11T21:01:03.166Z,17.10
2018-10-11T21:03:31.375Z,17.10
2018-10-11T21:05:59.664Z,17.00
2018-10-11T21:08:27.809Z,17.00
2018-10-11T21:10:56.053Z,17.00
2018-10-11T21:13:24.370Z,16.90
2018-10-11T21:15:52.569Z,16.90
2018-10-11T21:18:20.817Z,16.90
2018-10-11T21:20:48.946Z,16.80
2018-10-11T21:23:17.346Z,16.80
2018-10-11T21:25:45.549Z,16.70
2018-10-11T21:28:13.825Z,16.80
2018-10-11T21:30:41.982Z,16.70
2018-10-11T21:33:10.452Z,16.80
2018-10-11T21:35:38.634Z,16.80
2018-10-11T21:38:07.026Z,16.90
2018-10-11T21:40:36.237Z,16.90
2018-10-11T21:43:04.895Z,16.80
2018-10-11T21:45:33.045Z,16.70
2018-10-11T21:48:01.323Z,16.70
2018-10-11T21:50:29.506Z,16.70
2018-10-11T21:52:57.741Z,16.60
2018-10-11T21:55:25.931Z,16.60
2018-10-11T21:57:54.140Z,16.60
2018-10-11T22:00:26.553Z,16.60
2018-10-11T22:02:54.761Z,16.60
2018-10-11T22:05:22.922Z,16.60
2018-10-11T22:07:51.042Z,16.60
2018-10-11T22:10:19.214Z,16.50
2018-10-11T22:12:47.350Z,16.50
2018-10-11T22:15:15.594Z,16.40
2018-10-11T22:17:43.657Z,16.40
2018-10-11T22:20:11.856Z,16.40
2018-10-11T22:22:40.042Z,16.30
2018-10-11T22:25:08.194Z,16.40
2018-10-11T22:27:36.541Z,16.40
2018-10-11T22:30:04.691Z,16.40
2018-10-11T22:32:32.866Z,16.40
2018-10-11T22:35:01.072Z,16.30
2018-10-11T22:37:29.335Z,16.30
2018-10-11T22:39:57.588Z,16.20
2018-10-11T22:42:25.714Z,16.20
2018-10-11T22:44:54.045Z,16.20
2018-10-11T22:47:22.230Z,16.10
2018-10-11T22:49:50.387Z,16.10
2018-10-11T22:52:18.600Z,16.10
2018-10-11T22:54:46.750Z,16.10
2018-10-11T22:57:14.997Z,16.10
2018-10-11T22:59:43.153Z,16.10
2018-10-11T23:02:11.391Z,16.10
2018-10-11T23:04:39.634Z,16.00
2018-10-11T23:07:08.325Z,15.90
2018-10-11T23:09:36.510Z,15.90
2018-10-11T23:12:04.663Z,16.00
2018-10-11T23:14:32.872Z,16.00
2018-10-11T23:17:01.654Z,16.00
2018-10-11T23:19:29.801Z,16.00
2018-10-11T23:21:58.017Z,16.00
2018-10-11T23:24:26.750Z,15.90
2018-10-11T23:26:55.126Z,15.90
2018-10-11T23:29:23.285Z,15.80
2018-10-11T23:31:51.420Z,15.70
2018-10-11T23:34:19.538Z,15.70
2018-10-11T23:36:47.653Z,15.70
2018-10-11T23:39:15.809Z,15.70
2018-10-11T23:41:43.950Z,15.70
2018-10-11T23:44:12.133Z,15.70
2018-10-11T23:46:46.882Z,15.70
2018-10-11T23:49:15.022Z,15.70
2018-10-11T23:51:43.193Z,15.70
2018-10-11T23:54:11.390Z,15.70
2018-10-11T23:56:39.589Z,15.50
2018-10-11T23:59:07.918Z,15.40
